الصفحة الرئيسية
METAR-TAF:

METAR-TAF

مطار :

Grootfontein, ناميبيا

دائرة عرض: 19-36S, خط طول: 018-07E, ارتفاع: 1411 متر

مراقبة الطقس الحالي

تاريخ ووقت الإصدار 17 دقيقة قبل الساعة 18:00UTC
ريح 5 عقدة من الشمال/الشمال الشرقي
درجة الحرارة 19°درجة مئوية
الرطوبة 78%
ضغط

METAR: FYGF 221800Z AUTO 02005KT //// // ////// 19/15 Q////

زمن: 19:17 (18:17 UTC)

توقعات

تاريخ ووقت الإصدار 1ساعة و 17 دقيقة قبل الساعة 17:00UTC
التوقعات صالحة من22 الساعة 18 UTC إلى 23 الساعة 03 UTC
ريح 4 عقدة من الشمال/الشمال الشرقي
الرؤية 10 كم أو أكثر
غيوم قليلة على ارتفاع 3500 قدم, مزنة ركامية.
عاصفة رعدية, مطر خفيف
أصبح
من 22 الساعة 21 UTC إلى 22 الساعة 23 UTC
ريح 5 عقدة من الجنوب/الجنوب الشرقي

TAF: FYGF 221700Z 2218/2303 02004KT 9999 -TSRA FEW035CB BECMG 2221/2223 15005KT NSW NSC

أرصاد الطقس والتوقعات من أكثر من 4000 مطار (تقارير الطقس للمطار METAR والتنبؤ بالطقس بالمطارTAF).

المحطات المتاحة هي النقط الصفراء والحمراء على الخريطة.

حرك المؤشر فوق النقطة لمعرفة اسم المحطة.

ثم انقر لمعرفة أرصاد وتوقعات الطقس.

لتغيير الخارطة: اضغط على الأزرار الخضراء مع رمز الصليب الأسود للتكبير. على الزر الأخضر مع شرطة للتصغير، أو على الأسهم الخضراء للخرائط المجاورة.


METAR-TAF: